sensor_id;sensor_type;location;lat;lon;timestamp;P1;durP1;ratioP1;P2;durP2;ratioP2
65461;SDS011;53236;43.666;18.444;2023-03-01T00:01:01;86.17;;;43.30;;
65461;SDS011;53236;43.666;18.444;2023-03-01T00:03:28;85.53;;;42.30;;
65461;SDS011;53236;43.666;18.444;2023-03-01T00:05:54;95.30;;;44.37;;
65461;SDS011;53236;43.666;18.444;2023-03-01T00:08:20;82.20;;;41.33;;
65461;SDS011;53236;43.666;18.444;2023-03-01T00:10:46;80.23;;;41.57;;
65461;SDS011;53236;43.666;18.444;2023-03-01T00:13:11;85.33;;;43.30;;
65461;SDS011;53236;43.666;18.444;2023-03-01T00:15:40;72.53;;;37.37;;
65461;SDS011;53236;43.666;18.444;2023-03-01T00:18:07;81.07;;;41.40;;
65461;SDS011;53236;43.666;18.444;2023-03-01T00:20:33;84.67;;;43.53;;
65461;SDS011;53236;43.666;18.444;2023-03-01T00:22:59;79.07;;;41.03;;
65461;SDS011;53236;43.666;18.444;2023-03-01T00:25:25;59.80;;;34.93;;
65461;SDS011;53236;43.666;18.444;2023-03-01T00:27:51;69.83;;;36.03;;
65461;SDS011;53236;43.666;18.444;2023-03-01T00:30:16;72.63;;;40.47;;
65461;SDS011;53236;43.666;18.444;2023-03-01T00:32:42;65.53;;;36.50;;
65461;SDS011;53236;43.666;18.444;2023-03-01T00:35:08;61.30;;;35.00;;
65461;SDS011;53236;43.666;18.444;2023-03-01T00:37:33;69.33;;;39.23;;
65461;SDS011;53236;43.666;18.444;2023-03-01T00:39:59;68.90;;;38.20;;
65461;SDS011;53236;43.666;18.444;2023-03-01T00:42:25;58.23;;;35.27;;
65461;SDS011;53236;43.666;18.444;2023-03-01T00:44:50;61.97;;;34.70;;
65461;SDS011;53236;43.666;18.444;2023-03-01T00:47:16;63.43;;;37.83;;
65461;SDS011;53236;43.666;18.444;2023-03-01T00:49:42;68.27;;;41.13;;
65461;SDS011;53236;43.666;18.444;2023-03-01T00:52:07;58.73;;;34.63;;
65461;SDS011;53236;43.666;18.444;2023-03-01T00:54:33;68.90;;;38.40;;
65461;SDS011;53236;43.666;18.444;2023-03-01T00:56:58;67.30;;;36.80;;
65461;SDS011;53236;43.666;18.444;2023-03-01T00:59:24;78.10;;;42.43;;
65461;SDS011;53236;43.666;18.444;2023-03-01T01:01:50;73.13;;;39.97;;
65461;SDS011;53236;43.666;18.444;2023-03-01T01:04:16;77.73;;;41.73;;
65461;SDS011;53236;43.666;18.444;2023-03-01T01:06:43;79.80;;;44.37;;
65461;SDS011;53236;43.666;18.444;2023-03-01T01:09:12;71.00;;;40.60;;
65461;SDS011;53236;43.666;18.444;2023-03-01T01:11:43;75.13;;;40.63;;
65461;SDS011;53236;43.666;18.444;2023-03-01T01:14:10;80.17;;;41.80;;
65461;SDS011;53236;43.666;18.444;2023-03-01T01:16:36;71.70;;;38.27;;
65461;SDS011;53236;43.666;18.444;2023-03-01T01:19:02;76.47;;;40.80;;
65461;SDS011;53236;43.666;18.444;2023-03-01T01:21:28;71.00;;;38.00;;
65461;SDS011;53236;43.666;18.444;2023-03-01T01:23:54;75.57;;;39.93;;
65461;SDS011;53236;43.666;18.444;2023-03-01T01:26:29;74.93;;;40.53;;
65461;SDS011;53236;43.666;18.444;2023-03-01T01:28:57;74.50;;;40.50;;
65461;SDS011;53236;43.666;18.444;2023-03-01T01:31:24;104.00;;;51.10;;
65461;SDS011;53236;43.666;18.444;2023-03-01T01:33:50;88.03;;;45.93;;
65461;SDS011;53236;43.666;18.444;2023-03-01T01:36:17;82.43;;;42.03;;
65461;SDS011;53236;43.666;18.444;2023-03-01T01:38:43;77.53;;;40.20;;
65461;SDS011;53236;43.666;18.444;2023-03-01T01:41:10;72.33;;;38.77;;
65461;SDS011;53236;43.666;18.444;2023-03-01T01:43:37;87.47;;;43.07;;
65461;SDS011;53236;43.666;18.444;2023-03-01T01:48:46;100.63;;;44.90;;
65461;SDS011;53236;43.666;18.444;2023-03-01T01:51:18;82.37;;;41.43;;
65461;SDS011;53236;43.666;18.444;2023-03-01T01:53:49;74.80;;;39.03;;
65461;SDS011;53236;43.666;18.444;2023-03-01T01:56:19;75.10;;;39.13;;
65461;SDS011;53236;43.666;18.444;2023-03-01T01:58:48;80.70;;;39.33;;
65461;SDS011;53236;43.666;18.444;2023-03-01T02:01:14;80.77;;;38.80;;
65461;SDS011;53236;43.666;18.444;2023-03-01T02:03:41;77.07;;;39.97;;
65461;SDS011;53236;43.666;18.444;2023-03-01T02:08:54;78.43;;;38.90;;
65461;SDS011;53236;43.666;18.444;2023-03-01T02:11:24;77.43;;;40.93;;
65461;SDS011;53236;43.666;18.444;2023-03-01T02:13:51;78.13;;;38.83;;
65461;SDS011;53236;43.666;18.444;2023-03-01T02:16:18;61.40;;;36.13;;
65461;SDS011;53236;43.666;18.444;2023-03-01T02:18:45;70.07;;;38.03;;
65461;SDS011;53236;43.666;18.444;2023-03-01T02:21:14;67.50;;;37.73;;
65461;SDS011;53236;43.666;18.444;2023-03-01T02:23:51;68.30;;;35.73;;
65461;SDS011;53236;43.666;18.444;2023-03-01T02:26:21;70.37;;;36.83;;
65461;SDS011;53236;43.666;18.444;2023-03-01T02:28:54;76.43;;;38.83;;
65461;SDS011;53236;43.666;18.444;2023-03-01T02:31:20;78.87;;;40.93;;
65461;SDS011;53236;43.666;18.444;2023-03-01T02:34:05;65.27;;;35.77;;
65461;SDS011;53236;43.666;18.444;2023-03-01T02:36:37;77.97;;;38.77;;
65461;SDS011;53236;43.666;18.444;2023-03-01T02:39:46;68.67;;;37.30;;
65461;SDS011;53236;43.666;18.444;2023-03-01T02:42:14;66.60;;;36.30;;
65461;SDS011;53236;43.666;18.444;2023-03-01T02:44:43;70.10;;;37.67;;
65461;SDS011;53236;43.666;18.444;2023-03-01T02:47:09;67.43;;;36.40;;
65461;SDS011;53236;43.666;18.444;2023-03-01T02:49:35;62.00;;;34.57;;
65461;SDS011;53236;43.666;18.444;2023-03-01T02:54:50;69.47;;;37.53;;
65461;SDS011;53236;43.666;18.444;2023-03-01T02:57:32;65.73;;;33.87;;
65461;SDS011;53236;43.666;18.444;2023-03-01T03:00:02;59.80;;;33.23;;
65461;SDS011;53236;43.666;18.444;2023-03-01T03:02:34;57.60;;;31.60;;
65461;SDS011;53236;43.666;18.444;2023-03-01T03:05:02;62.63;;;32.07;;
65461;SDS011;53236;43.666;18.444;2023-03-01T03:07:31;62.33;;;33.93;;
65461;SDS011;53236;43.666;18.444;2023-03-01T03:09:59;68.47;;;35.47;;
65461;SDS011;53236;43.666;18.444;2023-03-01T03:12:25;59.53;;;31.67;;
65461;SDS011;53236;43.666;18.444;2023-03-01T03:14:50;56.03;;;31.00;;
65461;SDS011;53236;43.666;18.444;2023-03-01T03:17:16;71.37;;;35.33;;
65461;SDS011;53236;43.666;18.444;2023-03-01T03:19:42;63.20;;;33.30;;
65461;SDS011;53236;43.666;18.444;2023-03-01T03:22:10;60.43;;;33.07;;
65461;SDS011;53236;43.666;18.444;2023-03-01T03:24:37;64.10;;;33.50;;
65461;SDS011;53236;43.666;18.444;2023-03-01T03:27:06;68.00;;;36.13;;
65461;SDS011;53236;43.666;18.444;2023-03-01T03:29:33;73.10;;;35.23;;
65461;SDS011;53236;43.666;18.444;2023-03-01T03:31:59;67.67;;;34.40;;
65461;SDS011;53236;43.666;18.444;2023-03-01T03:34:24;72.13;;;35.70;;
65461;SDS011;53236;43.666;18.444;2023-03-01T03:36:53;66.67;;;33.47;;
65461;SDS011;53236;43.666;18.444;2023-03-01T03:39:24;93.40;;;36.80;;
65461;SDS011;53236;43.666;18.444;2023-03-01T03:41:52;85.77;;;34.87;;
65461;SDS011;53236;43.666;18.444;2023-03-01T03:44:18;110.30;;;38.67;;
65461;SDS011;53236;43.666;18.444;2023-03-01T03:46:44;110.20;;;39.53;;
65461;SDS011;53236;43.666;18.444;2023-03-01T03:49:10;120.60;;;40.20;;
65461;SDS011;53236;43.666;18.444;2023-03-01T03:51:35;107.67;;;40.87;;
65461;SDS011;53236;43.666;18.444;2023-03-01T03:54:01;91.07;;;37.90;;
65461;SDS011;53236;43.666;18.444;2023-03-01T03:56:27;93.43;;;34.80;;
65461;SDS011;53236;43.666;18.444;2023-03-01T03:58:53;90.93;;;35.63;;
65461;SDS011;53236;43.666;18.444;2023-03-01T04:01:18;104.10;;;38.63;;
65461;SDS011;53236;43.666;18.444;2023-03-01T04:03:44;93.43;;;38.30;;
65461;SDS011;53236;43.666;18.444;2023-03-01T04:06:13;93.77;;;41.23;;
65461;SDS011;53236;43.666;18.444;2023-03-01T04:08:39;83.67;;;36.73;;
65461;SDS011;53236;43.666;18.444;2023-03-01T04:11:06;81.40;;;38.63;;
65461;SDS011;53236;43.666;18.444;2023-03-01T04:13:51;98.20;;;37.63;;
65461;SDS011;53236;43.666;18.444;2023-03-01T04:16:18;79.77;;;35.77;;
65461;SDS011;53236;43.666;18.444;2023-03-01T04:18:44;68.33;;;35.30;;
65461;SDS011;53236;43.666;18.444;2023-03-01T04:21:10;93.13;;;36.57;;
65461;SDS011;53236;43.666;18.444;2023-03-01T04:23:36;74.87;;;33.77;;
65461;SDS011;53236;43.666;18.444;2023-03-01T04:26:02;61.83;;;32.97;;
65461;SDS011;53236;43.666;18.444;2023-03-01T04:28:33;86.37;;;36.33;;
65461;SDS011;53236;43.666;18.444;2023-03-01T04:31:09;79.17;;;37.17;;
65461;SDS011;53236;43.666;18.444;2023-03-01T04:33:59;82.47;;;35.60;;
65461;SDS011;53236;43.666;18.444;2023-03-01T04:36:26;97.60;;;40.92;;
65461;SDS011;53236;43.666;18.444;2023-03-01T04:38:53;83.87;;;38.40;;
65461;SDS011;53236;43.666;18.444;2023-03-01T04:41:20;78.30;;;38.20;;
65461;SDS011;53236;43.666;18.444;2023-03-01T04:43:47;81.53;;;38.20;;
65461;SDS011;53236;43.666;18.444;2023-03-01T04:46:15;76.93;;;37.40;;
65461;SDS011;53236;43.666;18.444;2023-03-01T04:48:43;75.83;;;36.60;;
65461;SDS011;53236;43.666;18.444;2023-03-01T04:51:10;67.33;;;33.53;;
65461;SDS011;53236;43.666;18.444;2023-03-01T04:53:40;63.97;;;32.53;;
65461;SDS011;53236;43.666;18.444;2023-03-01T04:56:07;64.60;;;34.63;;
65461;SDS011;53236;43.666;18.444;2023-03-01T04:58:33;62.93;;;31.27;;
65461;SDS011;53236;43.666;18.444;2023-03-01T05:00:58;65.80;;;33.20;;
65461;SDS011;53236;43.666;18.444;2023-03-01T05:03:24;70.37;;;33.87;;
65461;SDS011;53236;43.666;18.444;2023-03-01T05:05:50;67.00;;;34.40;;
65461;SDS011;53236;43.666;18.444;2023-03-01T05:08:17;54.17;;;29.47;;
65461;SDS011;53236;43.666;18.444;2023-03-01T05:10:48;58.43;;;31.40;;
65461;SDS011;53236;43.666;18.444;2023-03-01T05:13:18;61.90;;;30.97;;
65461;SDS011;53236;43.666;18.444;2023-03-01T05:15:54;56.10;;;30.43;;
65461;SDS011;53236;43.666;18.444;2023-03-01T05:18:22;61.57;;;31.90;;
65461;SDS011;53236;43.666;18.444;2023-03-01T05:20:50;60.77;;;32.93;;
65461;SDS011;53236;43.666;18.444;2023-03-01T05:23:21;58.20;;;30.00;;
65461;SDS011;53236;43.666;18.444;2023-03-01T05:25:50;59.90;;;31.53;;
65461;SDS011;53236;43.666;18.444;2023-03-01T05:28:17;58.40;;;29.97;;
65461;SDS011;53236;43.666;18.444;2023-03-01T05:30:44;68.20;;;35.60;;
65461;SDS011;53236;43.666;18.444;2023-03-01T05:33:11;67.77;;;34.97;;
65461;SDS011;53236;43.666;18.444;2023-03-01T05:35:43;61.73;;;30.13;;
65461;SDS011;53236;43.666;18.444;2023-03-01T05:38:10;51.63;;;27.90;;
65461;SDS011;53236;43.666;18.444;2023-03-01T05:40:40;57.17;;;32.10;;
65461;SDS011;53236;43.666;18.444;2023-03-01T05:43:07;67.20;;;35.13;;
65461;SDS011;53236;43.666;18.444;2023-03-01T05:45:33;61.03;;;33.37;;
65461;SDS011;53236;43.666;18.444;2023-03-01T05:48:02;59.17;;;31.63;;
65461;SDS011;53236;43.666;18.444;2023-03-01T05:50:28;66.33;;;31.40;;
65461;SDS011;53236;43.666;18.444;2023-03-01T05:52:58;62.03;;;33.33;;
65461;SDS011;53236;43.666;18.444;2023-03-01T05:55:23;61.07;;;34.77;;
65461;SDS011;53236;43.666;18.444;2023-03-01T05:57:49;59.90;;;30.47;;
65461;SDS011;53236;43.666;18.444;2023-03-01T06:00:16;59.03;;;31.33;;
65461;SDS011;53236;43.666;18.444;2023-03-01T06:02:44;58.27;;;32.33;;
65461;SDS011;53236;43.666;18.444;2023-03-01T06:05:10;53.23;;;31.63;;
65461;SDS011;53236;43.666;18.444;2023-03-01T06:07:37;54.73;;;30.13;;
65461;SDS011;53236;43.666;18.444;2023-03-01T06:10:03;53.13;;;29.97;;
65461;SDS011;53236;43.666;18.444;2023-03-01T06:12:31;54.10;;;31.70;;
65461;SDS011;53236;43.666;18.444;2023-03-01T06:15:01;61.67;;;34.93;;
65461;SDS011;53236;43.666;18.444;2023-03-01T06:17:31;57.50;;;35.40;;
65461;SDS011;53236;43.666;18.444;2023-03-01T06:20:02;59.03;;;34.07;;
65461;SDS011;53236;43.666;18.444;2023-03-01T06:22:32;53.17;;;30.47;;
65461;SDS011;53236;43.666;18.444;2023-03-01T06:24:58;97.97;;;62.40;;
65461;SDS011;53236;43.666;18.444;2023-03-01T06:27:24;59.20;;;32.93;;
65461;SDS011;53236;43.666;18.444;2023-03-01T06:29:49;66.80;;;43.33;;
65461;SDS011;53236;43.666;18.444;2023-03-01T06:32:15;56.37;;;33.17;;
65461;SDS011;53236;43.666;18.444;2023-03-01T06:34:41;50.57;;;29.43;;
65461;SDS011;53236;43.666;18.444;2023-03-01T06:37:07;54.20;;;30.37;;
65461;SDS011;53236;43.666;18.444;2023-03-01T06:39:33;55.47;;;31.40;;
65461;SDS011;53236;43.666;18.444;2023-03-01T06:41:59;60.13;;;33.00;;
65461;SDS011;53236;43.666;18.444;2023-03-01T06:44:25;65.30;;;33.37;;
65461;SDS011;53236;43.666;18.444;2023-03-01T06:46:51;64.30;;;33.93;;
65461;SDS011;53236;43.666;18.444;2023-03-01T06:49:17;64.30;;;33.37;;
65461;SDS011;53236;43.666;18.444;2023-03-01T06:51:43;70.47;;;38.33;;
65461;SDS011;53236;43.666;18.444;2023-03-01T06:54:09;70.67;;;37.67;;
65461;SDS011;53236;43.666;18.444;2023-03-01T06:56:35;91.33;;;47.87;;
65461;SDS011;53236;43.666;18.444;2023-03-01T06:59:01;88.87;;;45.43;;
65461;SDS011;53236;43.666;18.444;2023-03-01T07:01:27;84.00;;;45.47;;
65461;SDS011;53236;43.666;18.444;2023-03-01T07:03:54;87.23;;;48.13;;
65461;SDS011;53236;43.666;18.444;2023-03-01T07:06:20;80.93;;;44.07;;
65461;SDS011;53236;43.666;18.444;2023-03-01T07:08:46;74.23;;;40.93;;
65461;SDS011;53236;43.666;18.444;2023-03-01T07:11:12;69.00;;;37.70;;
65461;SDS011;53236;43.666;18.444;2023-03-01T07:13:38;59.93;;;36.37;;
65461;SDS011;53236;43.666;18.444;2023-03-01T07:16:04;55.67;;;33.33;;
65461;SDS011;53236;43.666;18.444;2023-03-01T07:18:30;50.90;;;29.43;;
65461;SDS011;53236;43.666;18.444;2023-03-01T07:20:56;49.40;;;28.57;;
65461;SDS011;53236;43.666;18.444;2023-03-01T07:23:22;42.97;;;25.77;;
65461;SDS011;53236;43.666;18.444;2023-03-01T07:25:54;42.93;;;25.87;;
65461;SDS011;53236;43.666;18.444;2023-03-01T07:28:20;39.67;;;24.73;;
65461;SDS011;53236;43.666;18.444;2023-03-01T07:30:48;46.23;;;27.03;;
65461;SDS011;53236;43.666;18.444;2023-03-01T07:33:14;47.03;;;24.07;;
65461;SDS011;53236;43.666;18.444;2023-03-01T07:35:39;40.53;;;24.57;;
65461;SDS011;53236;43.666;18.444;2023-03-01T07:38:05;43.20;;;25.33;;
65461;SDS011;53236;43.666;18.444;2023-03-01T07:40:31;35.90;;;23.40;;
65461;SDS011;53236;43.666;18.444;2023-03-01T07:42:57;42.60;;;25.63;;
65461;SDS011;53236;43.666;18.444;2023-03-01T07:45:26;46.07;;;25.93;;
65461;SDS011;53236;43.666;18.444;2023-03-01T07:47:53;43.60;;;26.73;;
65461;SDS011;53236;43.666;18.444;2023-03-01T07:50:19;48.13;;;27.80;;
65461;SDS011;53236;43.666;18.444;2023-03-01T07:52:46;38.97;;;23.63;;
65461;SDS011;53236;43.666;18.444;2023-03-01T07:55:12;42.30;;;23.33;;
65461;SDS011;53236;43.666;18.444;2023-03-01T07:57:38;42.67;;;25.47;;
65461;SDS011;53236;43.666;18.444;2023-03-01T08:00:04;43.63;;;26.03;;
65461;SDS011;53236;43.666;18.444;2023-03-01T08:02:31;41.20;;;25.20;;
65461;SDS011;53236;43.666;18.444;2023-03-01T08:04:56;43.70;;;27.23;;
65461;SDS011;53236;43.666;18.444;2023-03-01T08:07:22;45.07;;;25.53;;
65461;SDS011;53236;43.666;18.444;2023-03-01T08:09:48;50.27;;;26.80;;
65461;SDS011;53236;43.666;18.444;2023-03-01T08:12:13;48.27;;;29.17;;
65461;SDS011;53236;43.666;18.444;2023-03-01T08:14:41;46.30;;;25.83;;
65461;SDS011;53236;43.666;18.444;2023-03-01T08:17:07;44.90;;;26.83;;
65461;SDS011;53236;43.666;18.444;2023-03-01T08:19:33;49.80;;;28.23;;
65461;SDS011;53236;43.666;18.444;2023-03-01T08:21:59;66.23;;;36.33;;
65461;SDS011;53236;43.666;18.444;2023-03-01T08:24:26;81.13;;;43.00;;
65461;SDS011;53236;43.666;18.444;2023-03-01T08:26:52;66.17;;;36.40;;
65461;SDS011;53236;43.666;18.444;2023-03-01T08:29:18;56.60;;;32.83;;
65461;SDS011;53236;43.666;18.444;2023-03-01T08:31:44;58.40;;;34.70;;
65461;SDS011;53236;43.666;18.444;2023-03-01T08:34:11;67.73;;;39.63;;
65461;SDS011;53236;43.666;18.444;2023-03-01T08:36:42;67.73;;;40.13;;
65461;SDS011;53236;43.666;18.444;2023-03-01T08:39:10;57.93;;;33.23;;
65461;SDS011;53236;43.666;18.444;2023-03-01T08:41:38;65.87;;;37.80;;
65461;SDS011;53236;43.666;18.444;2023-03-01T08:44:04;68.60;;;41.97;;
65461;SDS011;53236;43.666;18.444;2023-03-01T08:46:31;59.40;;;35.97;;
65461;SDS011;53236;43.666;18.444;2023-03-01T08:49:03;57.37;;;33.70;;
65461;SDS011;53236;43.666;18.444;2023-03-01T08:51:32;46.20;;;27.57;;
65461;SDS011;53236;43.666;18.444;2023-03-01T08:54:02;43.37;;;25.00;;
65461;SDS011;53236;43.666;18.444;2023-03-01T08:56:30;41.27;;;26.90;;
65461;SDS011;53236;43.666;18.444;2023-03-01T08:58:55;42.17;;;27.57;;
65461;SDS011;53236;43.666;18.444;2023-03-01T09:01:21;44.40;;;29.10;;
65461;SDS011;53236;43.666;18.444;2023-03-01T09:03:47;43.37;;;26.97;;
65461;SDS011;53236;43.666;18.444;2023-03-01T09:06:13;43.90;;;27.10;;
65461;SDS011;53236;43.666;18.444;2023-03-01T09:08:40;44.53;;;26.60;;
65461;SDS011;53236;43.666;18.444;2023-03-01T09:11:08;42.33;;;26.43;;
65461;SDS011;53236;43.666;18.444;2023-03-01T09:13:35;49.97;;;26.90;;
65461;SDS011;53236;43.666;18.444;2023-03-01T09:16:02;42.37;;;25.77;;
65461;SDS011;53236;43.666;18.444;2023-03-01T09:18:30;40.63;;;23.47;;
65461;SDS011;53236;43.666;18.444;2023-03-01T09:21:09;37.77;;;22.60;;
65461;SDS011;53236;43.666;18.444;2023-03-01T09:23:37;35.20;;;21.70;;
65461;SDS011;53236;43.666;18.444;2023-03-01T09:26:05;31.77;;;20.53;;
65461;SDS011;53236;43.666;18.444;2023-03-01T09:28:35;38.53;;;23.20;;
65461;SDS011;53236;43.666;18.444;2023-03-01T09:31:02;40.10;;;24.17;;
65461;SDS011;53236;43.666;18.444;2023-03-01T09:33:29;56.47;;;37.83;;
65461;SDS011;53236;43.666;18.444;2023-03-01T09:35:57;46.00;;;28.77;;
65461;SDS011;53236;43.666;18.444;2023-03-01T09:38:26;37.27;;;23.07;;
65461;SDS011;53236;43.666;18.444;2023-03-01T09:40:52;43.10;;;22.40;;
65461;SDS011;53236;43.666;18.444;2023-03-01T09:43:24;41.63;;;23.30;;
65461;SDS011;53236;43.666;18.444;2023-03-01T09:46:04;38.90;;;23.80;;
65461;SDS011;53236;43.666;18.444;2023-03-01T09:48:38;35.20;;;22.63;;
65461;SDS011;53236;43.666;18.444;2023-03-01T09:51:19;37.37;;;22.80;;
65461;SDS011;53236;43.666;18.444;2023-03-01T09:53:51;35.43;;;21.10;;
65461;SDS011;53236;43.666;18.444;2023-03-01T09:56:20;33.90;;;21.30;;
65461;SDS011;53236;43.666;18.444;2023-03-01T10:02:09;39.20;;;19.77;;
65461;SDS011;53236;43.666;18.444;2023-03-01T10:10:06;35.87;;;19.13;;
65461;SDS011;53236;43.666;18.444;2023-03-01T10:12:34;30.93;;;19.70;;
65461;SDS011;53236;43.666;18.444;2023-03-01T10:17:46;47.47;;;28.03;;
65461;SDS011;53236;43.666;18.444;2023-03-01T10:20:21;44.43;;;25.40;;
65461;SDS011;53236;43.666;18.444;2023-03-01T10:22:49;37.53;;;23.47;;
65461;SDS011;53236;43.666;18.444;2023-03-01T10:28:10;33.63;;;22.00;;
65461;SDS011;53236;43.666;18.444;2023-03-01T10:30:59;32.23;;;18.83;;
65461;SDS011;53236;43.666;18.444;2023-03-01T10:33:31;34.47;;;20.80;;
65461;SDS011;53236;43.666;18.444;2023-03-01T10:36:00;32.53;;;19.00;;
65461;SDS011;53236;43.666;18.444;2023-03-01T10:38:26;31.73;;;18.83;;
65461;SDS011;53236;43.666;18.444;2023-03-01T10:41:11;28.20;;;16.50;;
65461;SDS011;53236;43.666;18.444;2023-03-01T10:43:44;28.33;;;17.43;;
65461;SDS011;53236;43.666;18.444;2023-03-01T10:46:31;30.97;;;17.80;;
65461;SDS011;53236;43.666;18.444;2023-03-01T10:51:44;33.17;;;17.83;;
65461;SDS011;53236;43.666;18.444;2023-03-01T10:54:19;34.33;;;20.50;;
65461;SDS011;53236;43.666;18.444;2023-03-01T10:56:51;32.03;;;18.87;;
65461;SDS011;53236;43.666;18.444;2023-03-01T10:59:21;33.70;;;18.87;;
65461;SDS011;53236;43.666;18.444;2023-03-01T11:02:28;31.45;;;19.65;;
65461;SDS011;53236;43.666;18.444;2023-03-01T11:04:56;44.37;;;19.83;;
65461;SDS011;53236;43.666;18.444;2023-03-01T11:07:47;39.80;;;23.23;;
65461;SDS011;53236;43.666;18.444;2023-03-01T11:10:19;38.73;;;22.80;;
65461;SDS011;53236;43.666;18.444;2023-03-01T11:12:52;42.67;;;23.53;;
65461;SDS011;53236;43.666;18.444;2023-03-01T11:15:30;60.47;;;35.90;;
65461;SDS011;53236;43.666;18.444;2023-03-01T11:17:56;85.37;;;45.77;;
65461;SDS011;53236;43.666;18.444;2023-03-01T11:25:26;73.67;;;34.67;;
65461;SDS011;53236;43.666;18.444;2023-03-01T11:27:58;87.20;;;45.10;;
65461;SDS011;53236;43.666;18.444;2023-03-01T11:30:27;86.80;;;44.97;;
65461;SDS011;53236;43.666;18.444;2023-03-01T11:33:10;77.87;;;41.30;;
65461;SDS011;53236;43.666;18.444;2023-03-01T11:35:45;65.37;;;35.27;;
65461;SDS011;53236;43.666;18.444;2023-03-01T11:38:22;68.17;;;38.03;;
65461;SDS011;53236;43.666;18.444;2023-03-01T11:40:54;56.83;;;34.33;;
65461;SDS011;53236;43.666;18.444;2023-03-01T11:43:29;42.63;;;25.50;;
65461;SDS011;53236;43.666;18.444;2023-03-01T11:48:57;34.97;;;20.50;;
65461;SDS011;53236;43.666;18.444;2023-03-01T11:54:32;39.40;;;22.43;;
65461;SDS011;53236;43.666;18.444;2023-03-01T12:00:25;32.70;;;20.40;;
65461;SDS011;53236;43.666;18.444;2023-03-01T12:08:53;31.00;;;18.50;;
65461;SDS011;53236;43.666;18.444;2023-03-01T12:14:37;38.13;;;21.73;;
65461;SDS011;53236;43.666;18.444;2023-03-01T12:34:37;42.10;;;25.80;;
65461;SDS011;53236;43.666;18.444;2023-03-01T12:36:58;43.20;;;25.93;;
65461;SDS011;53236;43.666;18.444;2023-03-01T12:39:33;44.90;;;26.13;;
65461;SDS011;53236;43.666;18.444;2023-03-01T12:44:46;45.13;;;29.43;;
65461;SDS011;53236;43.666;18.444;2023-03-01T12:47:36;37.33;;;23.40;;
65461;SDS011;53236;43.666;18.444;2023-03-01T12:50:24;36.85;;;21.98;;
65461;SDS011;53236;43.666;18.444;2023-03-01T12:52:56;36.00;;;21.13;;
65461;SDS011;53236;43.666;18.444;2023-03-01T12:57:59;40.50;;;22.80;;
65461;SDS011;53236;43.666;18.444;2023-03-01T13:00:34;42.43;;;24.43;;
65461;SDS011;53236;43.666;18.444;2023-03-01T13:11:22;49.53;;;25.90;;
65461;SDS011;53236;43.666;18.444;2023-03-01T13:13:48;50.73;;;27.97;;
65461;SDS011;53236;43.666;18.444;2023-03-01T13:16:20;52.77;;;27.70;;
65461;SDS011;53236;43.666;18.444;2023-03-01T13:18:46;53.40;;;28.73;;
65461;SDS011;53236;43.666;18.444;2023-03-01T13:21:11;57.00;;;29.93;;
65461;SDS011;53236;43.666;18.444;2023-03-01T13:23:38;48.37;;;27.73;;
65461;SDS011;53236;43.666;18.444;2023-03-01T13:28:40;50.67;;;29.20;;
65461;SDS011;53236;43.666;18.444;2023-03-01T13:33:46;61.63;;;35.30;;
65461;SDS011;53236;43.666;18.444;2023-03-01T13:37:08;55.00;;;32.70;;
65461;SDS011;53236;43.666;18.444;2023-03-01T13:39:43;71.57;;;37.90;;
65461;SDS011;53236;43.666;18.444;2023-03-01T13:41:56;67.20;;;33.80;;
65461;SDS011;53236;43.666;18.444;2023-03-01T13:47:14;68.63;;;39.40;;
65461;SDS011;53236;43.666;18.444;2023-03-01T13:50:00;57.43;;;33.17;;
65461;SDS011;53236;43.666;18.444;2023-03-01T13:55:30;51.50;;;29.57;;
65461;SDS011;53236;43.666;18.444;2023-03-01T14:00:57;43.23;;;25.53;;
65461;SDS011;53236;43.666;18.444;2023-03-01T14:03:23;41.07;;;23.53;;
65461;SDS011;53236;43.666;18.444;2023-03-01T14:06:00;35.50;;;22.13;;
65461;SDS011;53236;43.666;18.444;2023-03-01T14:08:27;67.63;;;38.73;;
65461;SDS011;53236;43.666;18.444;2023-03-01T14:21:44;47.57;;;28.33;;
65461;SDS011;53236;43.666;18.444;2023-03-01T14:24:20;46.97;;;30.97;;
65461;SDS011;53236;43.666;18.444;2023-03-01T14:26:47;50.17;;;31.77;;
65461;SDS011;53236;43.666;18.444;2023-03-01T14:32:20;53.85;;;35.78;;
65461;SDS011;53236;43.666;18.444;2023-03-01T14:39:55;72.20;;;45.27;;
65461;SDS011;53236;43.666;18.444;2023-03-01T14:42:22;74.63;;;46.77;;
65461;SDS011;53236;43.666;18.444;2023-03-01T14:44:51;75.20;;;45.97;;
65461;SDS011;53236;43.666;18.444;2023-03-01T14:47:37;68.30;;;43.93;;
65461;SDS011;53236;43.666;18.444;2023-03-01T14:50:08;71.47;;;43.27;;
65461;SDS011;53236;43.666;18.444;2023-03-01T14:52:41;71.07;;;43.60;;
65461;SDS011;53236;43.666;18.444;2023-03-01T14:55:15;81.93;;;48.60;;
65461;SDS011;53236;43.666;18.444;2023-03-01T14:57:52;67.53;;;42.07;;
65461;SDS011;53236;43.666;18.444;2023-03-01T15:02:47;72.17;;;44.00;;
65461;SDS011;53236;43.666;18.444;2023-03-01T15:05:15;70.17;;;41.83;;
65461;SDS011;53236;43.666;18.444;2023-03-01T15:07:50;81.63;;;46.70;;
65461;SDS011;53236;43.666;18.444;2023-03-01T15:10:27;76.77;;;46.40;;
65461;SDS011;53236;43.666;18.444;2023-03-01T15:12:55;88.17;;;51.90;;
65461;SDS011;53236;43.666;18.444;2023-03-01T15:15:35;76.17;;;43.37;;
65461;SDS011;53236;43.666;18.444;2023-03-01T15:18:04;72.67;;;40.63;;
65461;SDS011;53236;43.666;18.444;2023-03-01T15:20:40;59.67;;;36.47;;
65461;SDS011;53236;43.666;18.444;2023-03-01T15:23:05;65.90;;;37.27;;
65461;SDS011;53236;43.666;18.444;2023-03-01T15:25:44;68.93;;;41.13;;
65461;SDS011;53236;43.666;18.444;2023-03-01T15:28:12;63.50;;;36.97;;
65461;SDS011;53236;43.666;18.444;2023-03-01T15:30:45;56.33;;;35.20;;
65461;SDS011;53236;43.666;18.444;2023-03-01T15:35:52;47.22;;;29.10;;
65461;SDS011;53236;43.666;18.444;2023-03-01T15:40:56;45.00;;;29.63;;
65461;SDS011;53236;43.666;18.444;2023-03-01T15:43:38;46.50;;;32.17;;
65461;SDS011;53236;43.666;18.444;2023-03-01T15:46:12;46.20;;;31.93;;
65461;SDS011;53236;43.666;18.444;2023-03-01T15:48:49;50.37;;;30.90;;
65461;SDS011;53236;43.666;18.444;2023-03-01T15:51:17;38.37;;;26.47;;
65461;SDS011;53236;43.666;18.444;2023-03-01T15:54:19;36.00;;;24.17;;
65461;SDS011;53236;43.666;18.444;2023-03-01T15:56:48;35.25;;;23.98;;
65461;SDS011;53236;43.666;18.444;2023-03-01T15:59:15;37.80;;;27.50;;
65461;SDS011;53236;43.666;18.444;2023-03-01T16:01:41;39.57;;;27.37;;
65461;SDS011;53236;43.666;18.444;2023-03-01T16:04:11;42.57;;;30.17;;
65461;SDS011;53236;43.666;18.444;2023-03-01T16:06:41;58.33;;;38.20;;
65461;SDS011;53236;43.666;18.444;2023-03-01T16:09:07;59.83;;;38.43;;
65461;SDS011;53236;43.666;18.444;2023-03-01T16:11:35;74.37;;;43.80;;
65461;SDS011;53236;43.666;18.444;2023-03-01T16:14:02;69.23;;;41.17;;
65461;SDS011;53236;43.666;18.444;2023-03-01T16:16:27;67.83;;;38.93;;
65461;SDS011;53236;43.666;18.444;2023-03-01T16:18:53;73.00;;;41.80;;
65461;SDS011;53236;43.666;18.444;2023-03-01T16:21:21;61.83;;;39.73;;